Time;durP1;ratioP1;P1;durP2;ratioP2;P2;SDS_P1;SDS_P2;PMS_P1;PMS_P2;Temp;Humidity;BMP_temperature;BMP_pressure;BME280_temperature;BME280_humidity;BME280_pressure;Samples;Min_cycle;Max_cycle;Signal;HPM_P1;HPM_P2
2021/08/23 00:01:23;;;;;;;26.65;23.87;;;;;;;17.27;81.25;100526.67;1768203;80;21007;-78
2021/08/23 00:03:49;;;;;;;26.00;23.40;;;;;;;17.25;81.30;100534.63;1766090;80;21416;-78
2021/08/23 00:06:15;;;;;;;27.40;23.55;;;;;;;17.21;81.33;100538.27;1756817;81;21406;-78
2021/08/23 00:08:41;;;;;;;27.15;24.27;;;;;;;17.20;81.37;100554.67;1728719;81;21105;-78
2021/08/23 00:11:07;;;;;;;28.70;23.47;;;;;;;17.19;81.41;100560.58;1724030;83;21115;-78
2021/08/23 00:13:33;;;;;;;29.42;24.72;;;;;;;17.21;81.45;100565.22;1753273;81;21471;-78
2021/08/23 00:15:59;;;;;;;29.00;25.25;;;;;;;17.21;81.48;100565.22;1757487;81;21645;-78
2021/08/23 00:18:26;;;;;;;26.82;24.05;;;;;;;17.22;81.52;100566.89;1756401;81;21984;-79
2021/08/23 00:20:56;;;;;;;26.05;23.27;;;;;;;17.21;81.54;100567.92;1756379;81;21191;-79
2021/08/23 00:23:21;;;;;;;30.32;24.45;;;;;;;17.21;81.59;100570.61;1746738;80;20993;-79
2021/08/23 00:25:47;;;;;;;27.02;24.27;;;;;;;17.21;81.62;100574.66;1771358;80;21463;-79
2021/08/23 00:28:13;;;;;;;27.77;24.87;;;;;;;17.20;81.64;100574.38;1718825;82;20985;-79
2021/08/23 00:30:39;;;;;;;29.20;24.95;;;;;;;17.18;81.67;100566.99;1751458;80;21547;-79
2021/08/23 00:33:05;;;;;;;26.93;24.18;;;;;;;17.18;81.71;100565.64;1722408;80;21169;-79
2021/08/23 00:35:31;;;;;;;29.85;25.62;;;;;;;17.19;81.74;100563.27;1704388;81;21015;-79
2021/08/23 00:38:01;;;;;;;27.50;24.47;;;;;;;17.18;81.77;100556.21;1721967;80;20923;-79
2021/08/23 00:40:27;;;;;;;29.20;24.80;;;;;;;17.18;81.81;100542.73;1748144;81;21059;-79
2021/08/23 00:42:53;;;;;;;27.32;24.45;;;;;;;17.18;81.83;100544.09;1722202;81;20919;-79
2021/08/23 00:45:22;;;;;;;28.85;25.85;;;;;;;17.14;81.87;100550.09;1722242;80;21147;-79
2021/08/23 00:47:51;;;;;;;41.28;34.25;;;;;;;17.12;81.91;100555.70;1716238;82;21015;-79
2021/08/23 00:50:18;;;;;;;35.70;30.90;;;;;;;17.12;81.96;100557.57;1773676;80;21559;-79
2021/08/23 00:52:44;;;;;;;31.10;26.85;;;;;;;17.13;82.00;100556.03;1749948;80;21271;-79
2021/08/23 00:55:10;;;;;;;28.15;25.02;;;;;;;17.11;82.01;100547.30;1691364;84;21129;-79
2021/08/23 00:57:39;;;;;;;30.95;26.12;;;;;;;17.07;82.04;100544.71;1704019;81;21163;-79
2021/08/23 01:00:06;;;;;;;29.42;26.23;;;;;;;17.07;82.10;100548.75;1723948;80;21041;-79
2021/08/23 01:02:43;;;;;;;28.80;25.85;;;;;;;17.05;82.13;100557.58;1772505;80;21053;-79
2021/08/23 01:05:14;;;;;;;28.70;25.68;;;;;;;17.05;82.17;100560.78;1726379;80;21030;-79
2021/08/23 01:08:03;;;;;;;30.60;26.80;;;;;;;17.03;82.24;100559.63;1712406;82;21707;-79
2021/08/23 01:10:39;;;;;;;31.02;27.87;;;;;;;17.02;82.28;100553.95;1773367;80;21081;-80
2021/08/23 01:13:06;;;;;;;29.42;25.60;;;;;;;17.03;82.34;100552.09;1768798;80;21012;-80
2021/08/23 01:15:33;;;;;;;30.82;27.62;;;;;;;17.00;82.38;100550.62;1773579;80;21483;-80
2021/08/23 01:17:59;;;;;;;32.42;28.17;;;;;;;17.00;82.41;100557.36;1769572;80;21015;-80
2021/08/23 01:20:26;;;;;;;34.25;28.57;;;;;;;16.98;82.44;100548.67;1770002;80;21065;-80
2021/08/23 01:22:52;;;;;;;32.30;28.92;;;;;;;16.97;82.49;100545.66;1753851;80;21114;-80
2021/08/23 01:25:28;;;;;;;34.27;30.50;;;;;;;16.97;82.53;100538.91;1703644;84;21101;-80
2021/08/23 01:28:02;;;;;;;36.55;31.17;;;;;;;16.96;82.58;100536.73;1724799;80;21041;-80
2021/08/23 01:30:33;;;;;;;36.42;32.42;;;;;;;16.95;82.61;100530.23;1726006;80;21523;-80
2021/08/23 01:32:59;;;;;;;34.50;30.92;;;;;;;16.93;82.65;100533.62;1693331;82;21034;-80
2021/08/23 01:35:24;;;;;;;31.40;27.87;;;;;;;16.93;82.72;100528.24;1725009;80;21036;-80
2021/08/23 01:37:51;;;;;;;28.80;25.70;;;;;;;16.91;82.78;100520.90;1706925;82;20978;-80
2021/08/23 01:40:17;;;;;;;29.87;26.62;;;;;;;16.88;82.85;100518.63;1716604;81;21530;-79
2021/08/23 01:42:43;;;;;;;29.18;26.02;;;;;;;16.87;82.90;100521.00;1738170;79;21068;-80
2021/08/23 01:45:10;;;;;;;29.63;25.72;;;;;;;16.86;82.95;100520.16;1721908;83;21042;-80
2021/08/23 01:47:36;;;;;;;32.08;28.77;;;;;;;16.86;82.98;100522.02;1704074;81;21258;-80
2021/08/23 01:50:03;;;;;;;31.70;28.23;;;;;;;16.85;83.03;100516.34;1750066;81;20920;-80
2021/08/23 01:52:29;;;;;;;31.37;28.17;;;;;;;16.84;83.08;100509.30;1726145;80;21500;-79
2021/08/23 01:54:55;;;;;;;30.48;27.37;;;;;;;16.83;83.13;100503.08;1722236;80;21038;-79
2021/08/23 01:57:21;;;;;;;28.35;25.32;;;;;;;16.82;83.13;100504.10;1704048;81;21038;-79
2021/08/23 01:59:48;;;;;;;27.82;24.15;;;;;;;16.82;83.20;100512.70;1733325;82;21186;-79
2021/08/23 02:02:14;;;;;;;28.23;24.20;;;;;;;16.80;83.23;100506.70;1741364;80;21029;-79
2021/08/23 02:04:40;;;;;;;29.23;25.17;;;;;;;16.81;83.28;100513.24;1720688;82;21001;-79
2021/08/23 02:07:06;;;;;;;27.40;24.50;;;;;;;16.81;83.30;100517.80;1768211;80;21025;-80
2021/08/23 02:09:32;;;;;;;28.57;25.68;;;;;;;16.80;83.36;100516.96;1781889;80;20993;-80
2021/08/23 02:11:58;;;;;;;29.48;26.40;;;;;;;16.81;83.36;100507.85;1764271;81;21163;-80
2021/08/23 02:14:24;;;;;;;30.43;27.32;;;;;;;16.82;83.38;100508.14;1778820;80;21023;-80
2021/08/23 02:16:50;;;;;;;25.62;23.12;;;;;;;16.82;83.40;100500.58;1781679;80;21050;-81
2021/08/23 02:19:16;;;;;;;28.40;25.50;;;;;;;16.83;83.44;100494.16;1779397;80;20985;-81
2021/08/23 02:21:55;;;;;;;25.68;23.12;;;;;;;16.82;83.44;100500.58;1768586;80;21069;-81
2021/08/23 02:24:22;;;;;;;26.15;23.45;;;;;;;16.83;83.47;100494.16;1745720;80;21711;-81
2021/08/23 02:26:49;;;;;;;27.30;24.52;;;;;;;16.83;83.51;100499.55;1779167;80;21041;-82
2021/08/23 02:29:15;;;;;;;28.07;25.15;;;;;;;16.82;83.53;100501.41;1738886;81;21069;-82
2021/08/23 02:31:41;;;;;;;25.90;23.20;;;;;;;16.80;83.55;100502.66;1741374;80;20867;-82
2021/08/23 02:34:07;;;;;;;28.07;25.08;;;;;;;16.79;83.60;100501.00;1764172;81;21057;-82
2021/08/23 02:36:34;;;;;;;27.37;24.47;;;;;;;16.80;83.60;100506.70;1781592;80;21138;-82
2021/08/23 02:39:00;;;;;;;26.10;23.38;;;;;;;16.82;83.65;100501.41;1778451;80;21018;-82
2021/08/23 02:41:26;;;;;;;27.20;24.37;;;;;;;16.83;83.68;100495.51;1781797;79;21522;-81
2021/08/23 02:43:52;;;;;;;26.25;23.57;;;;;;;16.84;83.69;100489.09;1738651;80;21498;-81
2021/08/23 02:46:18;;;;;;;25.75;23.15;;;;;;;16.83;83.71;100468.57;1741179;80;21763;-82
2021/08/23 02:48:45;;;;;;;25.68;23.00;;;;;;;16.82;83.74;100483.06;1733727;82;21183;-81
2021/08/23 02:51:12;;;;;;;26.00;23.30;;;;;;;16.81;83.77;100480.92;1719066;81;21021;-81
2021/08/23 02:53:39;;;;;;;26.93;23.42;;;;;;;16.82;83.81;100486.59;1782187;80;21557;-80
2021/08/23 02:56:05;;;;;;;26.05;23.27;;;;;;;16.84;83.83;100489.09;1766478;81;21583;-80
2021/08/23 02:58:31;;;;;;;27.00;24.10;;;;;;;16.86;83.86;100487.84;1781426;80;21916;-80
2021/08/23 03:00:57;;;;;;;24.65;22.10;;;;;;;16.87;83.89;100484.63;1779437;80;22293;-80
2021/08/23 03:03:24;;;;;;;26.12;23.38;;;;;;;16.86;83.88;100484.31;1754056;80;21024;-80
2021/08/23 03:05:50;;;;;;;26.20;23.62;;;;;;;16.85;83.93;100482.67;1777228;80;20994;-79
2021/08/23 03:08:16;;;;;;;27.62;24.82;;;;;;;16.85;83.96;100482.67;1779380;80;21084;-80
2021/08/23 03:10:41;;;;;;;26.40;23.70;;;;;;;16.87;83.98;100483.28;1779424;80;20970;-80
2021/08/23 03:13:08;;;;;;;27.27;24.20;;;;;;;16.88;84.01;100479.56;1778592;80;21510;-80
2021/08/23 03:15:34;;;;;;;27.05;24.32;;;;;;;16.88;84.03;100479.05;1730043;81;21026;-80
2021/08/23 03:18:00;;;;;;;25.08;22.62;;;;;;;16.90;84.07;100480.17;1749529;81;21136;-79
2021/08/23 03:20:26;;;;;;;27.17;24.55;;;;;;;16.91;84.10;100485.88;1760250;81;21011;-80
2021/08/23 03:22:52;;;;;;;26.87;24.15;;;;;;;16.90;84.08;100489.08;1749338;81;21074;-80
2021/08/23 03:25:18;;;;;;;27.52;24.50;;;;;;;16.92;84.12;100488.89;1730444;82;21152;-79
2021/08/23 03:27:44;;;;;;;29.42;26.40;;;;;;;16.92;84.11;100488.34;1752838;81;21015;-79
2021/08/23 03:30:11;;;;;;;29.48;26.45;;;;;;;16.94;84.15;100489.49;1760471;81;21094;-80
2021/08/23 03:32:37;;;;;;;29.40;26.33;;;;;;;16.95;84.16;100481.73;1733975;81;21018;-80
2021/08/23 03:35:05;;;;;;;27.10;24.47;;;;;;;16.95;84.16;100485.77;1760130;81;21045;-79
2021/08/23 03:37:31;;;;;;;27.52;24.55;;;;;;;16.98;84.19;100492.09;1760194;81;21692;-80
2021/08/23 03:39:57;;;;;;;32.38;27.48;;;;;;;16.99;84.21;100496.45;1743424;81;21250;-80
2021/08/23 03:42:23;;;;;;;26.57;23.98;;;;;;;17.03;84.24;100500.35;1741673;81;21042;-80
2021/08/23 03:44:50;;;;;;;27.75;24.90;;;;;;;17.04;84.25;100501.19;1760345;81;21054;-80
2021/08/23 03:47:17;;;;;;;27.15;24.25;;;;;;;17.02;84.28;100506.80;1734651;81;21097;-80
2021/08/23 03:49:43;;;;;;;28.85;25.82;;;;;;;17.00;84.27;100506.16;1736120;80;21811;-80
2021/08/23 03:52:09;;;;;;;30.88;27.98;;;;;;;16.99;84.28;100502.64;1753375;80;21021;-80
2021/08/23 03:54:35;;;;;;;29.75;26.85;;;;;;;17.00;84.30;100496.73;1779100;80;21007;-80
2021/08/23 03:57:01;;;;;;;31.00;27.95;;;;;;;16.97;84.30;100497.16;1759612;81;20892;-80
2021/08/23 03:59:27;;;;;;;31.00;27.95;;;;;;;16.98;84.31;100502.86;1744570;81;21066;-80
2021/08/23 04:01:53;;;;;;;30.43;27.22;;;;;;;16.98;84.31;100505.55;1706634;83;21190;-80
2021/08/23 04:04:19;;;;;;;31.27;28.15;;;;;;;16.97;84.34;100499.84;1716548;83;21082;-81
2021/08/23 04:06:46;;;;;;;31.35;28.17;;;;;;;16.98;84.40;100500.17;1723112;83;21437;-81
2021/08/23 04:09:13;;;;;;;32.50;29.30;;;;;;;16.97;84.41;100503.38;1724657;83;21599;-81
2021/08/23 04:11:39;;;;;;;31.45;28.30;;;;;;;16.97;84.42;100501.20;1698315;83;21023;-81
2021/08/23 04:14:05;;;;;;;31.37;28.15;;;;;;;16.97;84.43;100503.89;1725284;83;21195;-82
2021/08/23 04:16:31;;;;;;;30.68;27.60;;;;;;;16.98;84.47;100504.20;1723002;83;21048;-81
2021/08/23 04:18:57;;;;;;;30.10;27.02;;;;;;;17.01;84.48;100497.56;1724805;83;20919;-81
2021/08/23 04:21:23;;;;;;;27.60;25.00;;;;;;;17.02;84.50;100505.45;1725395;83;20955;-82
2021/08/23 04:23:49;;;;;;;28.45;25.45;;;;;;;17.02;84.52;100509.49;1723814;83;21038;-82
2021/08/23 04:26:15;;;;;;;27.98;25.08;;;;;;;17.01;84.54;100507.83;1724795;82;21130;-82
2021/08/23 04:28:41;;;;;;;28.07;25.10;;;;;;;17.01;84.55;100515.08;1724690;83;20995;-82
2021/08/23 04:31:07;;;;;;;29.30;26.17;;;;;;;17.02;84.57;100506.80;1706960;83;20995;-83
2021/08/23 04:33:33;;;;;;;26.70;24.10;;;;;;;17.02;84.61;100502.76;1724801;81;20983;-83
2021/08/23 04:35:59;;;;;;;26.75;23.75;;;;;;;17.02;84.60;100505.45;1708355;83;20883;-84
2021/08/23 04:38:25;;;;;;;28.25;25.25;;;;;;;17.01;84.63;100506.48;1696486;83;21180;-82
2021/08/23 04:40:51;;;;;;;28.02;25.27;;;;;;;17.00;84.65;100500.77;1696062;83;21503;-83
2021/08/23 04:43:17;;;;;;;28.07;25.30;;;;;;;17.01;84.64;100498.40;1717720;83;20974;-83
2021/08/23 04:45:44;;;;;;;30.70;25.80;;;;;;;16.98;84.67;100501.00;1724246;83;21449;-83
2021/08/23 04:48:10;;;;;;;29.52;26.42;;;;;;;16.98;84.70;100504.20;1722789;83;21034;-84
2021/08/23 04:50:35;;;;;;;36.30;26.52;;;;;;;16.97;84.71;100503.89;1724929;83;21871;-83
2021/08/23 04:53:01;;;;;;;30.85;26.85;;;;;;;16.96;84.75;100498.18;1710392;83;20871;-83
2021/08/23 04:55:27;;;;;;;29.63;26.48;;;;;;;16.96;84.76;100495.48;1724863;83;21003;-84
2021/08/23 04:57:54;;;;;;;33.88;27.27;;;;;;;16.94;84.79;100498.92;1714691;83;20999;-84
2021/08/23 05:00:20;;;;;;;42.58;30.82;;;;;;;16.94;84.80;100490.84;1717124;81;21073;-83
2021/08/23 05:02:46;;;;;;;29.48;26.30;;;;;;;16.92;84.81;100488.89;1736800;80;21108;-83
2021/08/23 05:05:12;;;;;;;31.30;27.42;;;;;;;16.92;84.83;100492.93;1771784;80;21064;-83
2021/08/23 05:07:39;;;;;;;30.85;27.48;;;;;;;16.90;84.86;100487.73;1779988;80;21030;-85
2021/08/23 05:10:06;;;;;;;30.05;26.82;;;;;;;16.90;84.88;100489.08;1780227;80;21039;-85
2021/08/23 05:12:32;;;;;;;31.33;28.02;;;;;;;16.90;84.89;100488.25;1758825;80;21055;-86
2021/08/23 05:14:58;;;;;;;30.00;26.93;;;;;;;16.90;84.92;100490.95;1759626;80;21487;-86
2021/08/23 05:17:25;;;;;;;29.92;26.75;;;;;;;16.91;84.96;100493.95;1756686;80;21417;-86
2021/08/23 05:19:52;;;;;;;29.30;25.80;;;;;;;16.90;84.96;100493.64;1735896;80;21467;-85
2021/08/23 05:22:18;;;;;;;27.30;24.50;;;;;;;16.91;84.98;100493.95;1740158;79;21014;-85
2021/08/23 05:24:44;;;;;;;23.18;20.77;;;;;;;16.92;85.02;100492.93;1761246;81;21034;-85
2021/08/23 05:27:10;;;;;;;23.98;21.62;;;;;;;16.92;85.04;100495.63;1752015;81;21090;-85
2021/08/23 05:29:36;;;;;;;24.85;20.65;;;;;;;16.90;85.05;100499.86;1733001;81;20982;-84
2021/08/23 05:32:02;;;;;;;21.10;18.95;;;;;;;16.91;85.08;100502.04;1731501;81;21132;-84
2021/08/23 05:34:28;;;;;;;19.50;17.50;;;;;;;16.91;85.13;100496.65;1730972;81;21002;-83
2021/08/23 05:36:55;;;;;;;21.45;19.35;;;;;;;16.93;85.13;100498.61;1732112;81;21548;-83
2021/08/23 05:39:21;;;;;;;24.85;22.27;;;;;;;16.94;85.16;100498.92;1759439;81;21658;-83
2021/08/23 05:41:47;;;;;;;23.50;21.05;;;;;;;16.97;85.21;100498.50;1758474;80;21515;-84
2021/08/23 05:44:13;;;;;;;18.48;16.65;;;;;;;16.95;85.20;100489.81;1767732;80;21495;-85
2021/08/23 05:46:39;;;;;;;17.25;15.65;;;;;;;16.96;85.23;100496.84;1727453;82;21009;-85
2021/08/23 05:49:05;;;;;;;16.27;14.73;;;;;;;16.97;85.28;100498.50;1735102;80;21637;-85
2021/08/23 05:51:31;;;;;;;16.00;14.47;;;;;;;16.95;85.29;100501.94;1766987;80;21594;-85
2021/08/23 05:53:56;;;;;;;22.10;19.23;;;;;;;16.94;85.33;100498.92;1746634;80;20907;-84
2021/08/23 05:56:22;;;;;;;24.63;21.87;;;;;;;16.93;85.35;100495.91;1747103;80;21015;-85
2021/08/23 05:58:48;;;;;;;22.58;20.27;;;;;;;16.92;85.40;100492.93;1741171;80;20867;-84
2021/08/23 06:01:14;;;;;;;22.10;19.75;;;;;;;16.92;85.42;100492.93;1736994;80;20998;-83
2021/08/23 06:03:40;;;;;;;20.90;18.90;;;;;;;16.91;85.47;100497.48;1736978;80;21209;-83
2021/08/23 06:06:06;;;;;;;20.62;18.52;;;;;;;16.93;85.50;100497.26;1740601;80;21474;-84
2021/08/23 06:08:33;;;;;;;21.68;19.57;;;;;;;16.91;85.52;100493.95;1780429;80;20980;-84
2021/08/23 06:11:02;;;;;;;26.02;23.42;;;;;;;16.93;85.56;100494.56;1751952;80;21480;-84
2021/08/23 06:13:28;;;;;;;28.07;24.77;;;;;;;16.93;85.59;100493.22;1754369;81;21038;-84
2021/08/23 06:15:55;;;;;;;25.37;22.67;;;;;;;16.93;85.62;100491.36;1758718;81;21471;-84
2021/08/23 06:18:22;;;;;;;26.65;23.65;;;;;;;16.92;85.64;100487.55;1759256;81;21003;-84
2021/08/23 06:20:48;;;;;;;26.23;22.52;;;;;;;16.92;85.66;100491.58;1761051;81;21047;-84
2021/08/23 06:23:14;;;;;;;25.05;22.48;;;;;;;16.91;85.68;100495.30;1748281;81;21002;-85
2021/08/23 06:25:40;;;;;;;23.40;20.92;;;;;;;16.91;85.71;100489.41;1736599;80;21041;-84
2021/08/23 06:28:06;;;;;;;23.85;21.07;;;;;;;16.91;85.73;100493.45;1736605;80;21151;-84
2021/08/23 06:30:33;;;;;;;22.45;20.25;;;;;;;16.90;85.76;100494.98;1765108;80;21554;-84
2021/08/23 06:32:59;;;;;;;22.05;19.70;;;;;;;16.90;85.78;100490.43;1753474;80;21050;-83
2021/08/23 06:35:25;;;;;;;23.60;21.20;;;;;;;16.91;85.83;100496.65;1756536;80;21461;-83
2021/08/23 06:37:51;;;;;;;32.33;25.92;;;;;;;16.91;85.85;100500.17;1751192;82;21654;-83
2021/08/23 06:40:17;;;;;;;37.60;27.98;;;;;;;16.90;85.86;100499.02;1731836;81;21852;-82
2021/08/23 06:42:43;;;;;;;43.50;33.78;;;;;;;16.88;85.90;100494.37;1731214;83;20986;-83
2021/08/23 06:45:10;;;;;;;43.28;33.75;;;;;;;16.89;85.95;100490.63;1731284;83;21539;-83
2021/08/23 06:47:38;;;;;;;40.28;33.33;;;;;;;16.88;85.96;100494.37;1731336;82;20982;-83
2021/08/23 06:50:05;;;;;;;42.50;37.08;;;;;;;16.88;85.98;100493.03;1731106;83;21006;-83
2021/08/23 06:52:31;;;;;;;35.15;31.37;;;;;;;16.90;85.98;100497.67;1757509;81;21162;-83
2021/08/23 06:54:57;;;;;;;33.35;29.92;;;;;;;16.91;86.01;100503.39;1758123;81;20983;-84
2021/08/23 06:57:23;;;;;;;33.50;30.17;;;;;;;16.88;86.00;100499.77;1763280;80;21031;-85
2021/08/23 06:59:50;;;;;;;33.90;30.50;;;;;;;16.88;86.03;100505.16;1763805;80;21536;-84
2021/08/23 07:02:16;;;;;;;34.33;31.00;;;;;;;16.86;86.04;100503.17;1788221;80;21057;-85
2021/08/23 07:04:44;;;;;;;36.48;32.38;;;;;;;16.85;86.06;100510.96;1785269;80;21172;-85
2021/08/23 07:07:10;;;;;;;37.08;33.02;;;;;;;16.84;86.07;100507.95;1767068;81;21477;-85
2021/08/23 07:09:36;;;;;;;36.65;32.73;;;;;;;16.83;86.09;100507.11;1753473;81;21464;-82
2021/08/23 07:12:03;;;;;;;38.28;34.20;;;;;;;16.83;86.11;100513.02;1761761;79;21003;-87
2021/08/23 07:14:29;;;;;;;38.20;34.27;;;;;;;16.80;86.13;100506.70;1773616;79;21045;-85
2021/08/23 07:16:55;;;;;;;41.15;36.75;;;;;;;16.79;86.17;100517.98;1724008;81;21144;-84
2021/08/23 07:19:21;;;;;;;41.63;37.17;;;;;;;16.78;86.18;100516.33;1745738;81;21074;-87
2021/08/23 07:21:47;;;;;;;43.28;36.40;;;;;;;16.79;86.22;100515.81;1751828;81;20995;-85
2021/08/23 07:24:13;;;;;;;43.78;39.18;;;;;;;16.78;86.26;100524.41;1753948;79;21021;-86
2021/08/23 07:26:39;;;;;;;45.25;40.35;;;;;;;16.78;86.28;100522.25;1760533;81;21080;-85
2021/08/23 07:29:05;;;;;;;41.35;37.20;;;;;;;16.77;86.32;100523.28;1747201;81;21010;-86
2021/08/23 07:31:31;;;;;;;44.30;37.65;;;;;;;16.75;86.33;100521.30;1763978;81;21090;-86
2021/08/23 07:33:57;;;;;;;41.18;37.05;;;;;;;16.76;86.38;100528.34;1766634;81;21033;-85
2021/08/23 07:36:23;;;;;;;47.85;42.70;;;;;;;16.77;86.38;100530.84;1766620;81;21061;-85
2021/08/23 07:38:49;;;;;;;40.83;36.65;;;;;;;16.78;86.40;100526.30;1766687;81;21013;-85
2021/08/23 07:41:15;;;;;;;41.85;37.38;;;;;;;16.81;86.41;100529.92;1766583;81;21101;-85
2021/08/23 07:43:42;;;;;;;42.70;38.23;;;;;;;16.82;86.43;100529.69;1766626;81;20998;-85
2021/08/23 07:46:09;;;;;;;38.40;34.63;;;;;;;16.84;86.42;100525.45;1766749;81;21038;-85
2021/08/23 07:48:35;;;;;;;35.40;31.75;;;;;;;16.86;86.45;100524.72;1766501;81;21003;-85
2021/08/23 07:51:01;;;;;;;34.65;31.17;;;;;;;16.86;86.46;100526.06;1766481;81;21049;-85
2021/08/23 07:53:27;;;;;;;32.08;28.77;;;;;;;16.86;86.47;100531.45;1766758;81;21091;-84
2021/08/23 07:55:53;;;;;;;29.35;26.40;;;;;;;16.87;86.52;100536.64;1766663;81;20994;-84
2021/08/23 07:58:20;;;;;;;28.87;25.88;;;;;;;16.87;86.53;100537.99;1766662;81;21062;-84
2021/08/23 08:00:46;;;;;;;27.45;24.65;;;;;;;16.86;86.51;100540.88;1762302;81;21447;-85
2021/08/23 08:03:12;;;;;;;28.40;25.45;;;;;;;16.82;86.49;100540.98;1752524;81;21515;-85
2021/08/23 08:05:38;;;;;;;27.42;24.72;;;;;;;16.81;86.52;100547.42;1752965;81;21061;-85
2021/08/23 08:08:06;;;;;;;25.30;22.62;;;;;;;16.77;86.52;100549.70;1752437;81;21479;-84
2021/08/23 08:10:34;;;;;;;27.55;24.63;;;;;;;16.75;86.51;100547.72;1753003;81;21534;-84
2021/08/23 08:13:00;;;;;;;35.78;26.85;;;;;;;16.71;86.53;100557.78;1752840;81;20983;-84
2021/08/23 08:15:26;;;;;;;27.82;24.98;;;;;;;16.64;86.57;100548.87;1752954;81;21007;-84
2021/08/23 08:17:52;;;;;;;30.25;26.95;;;;;;;16.62;86.58;100549.57;1752911;81;21116;-84
2021/08/23 08:20:18;;;;;;;28.12;25.32;;;;;;;16.58;86.59;100552.36;1752828;81;20970;-84
2021/08/23 08:22:44;;;;;;;24.85;22.50;;;;;;;16.57;86.64;100556.91;1752993;81;21535;-85
2021/08/23 08:25:11;;;;;;;25.92;23.32;;;;;;;16.59;86.65;100560.75;1752971;81;21090;-85
2021/08/23 08:27:38;;;;;;;21.25;19.25;;;;;;;16.58;86.63;100560.44;1753002;81;21425;-85
2021/08/23 08:30:05;;;;;;;21.93;19.77;;;;;;;16.54;86.64;100560.53;1752751;81;21866;-85
2021/08/23 08:32:31;;;;;;;20.20;18.37;;;;;;;16.47;86.63;100559.98;1752952;81;21602;-85
2021/08/23 08:34:57;;;;;;;18.77;17.02;;;;;;;16.43;86.63;100564.11;1752681;81;20987;-85
2021/08/23 08:37:23;;;;;;;18.92;17.23;;;;;;;16.38;86.64;100560.38;1752770;81;21534;-84
2021/08/23 08:39:49;;;;;;;19.65;17.65;;;;;;;16.32;86.64;100564.73;1752747;81;21002;-86
2021/08/23 08:42:19;;;;;;;21.80;19.60;;;;;;;16.29;86.66;100571.83;1752905;81;21108;-86
2021/08/23 08:44:46;;;;;;;21.07;18.92;;;;;;;16.25;86.67;100573.81;1753116;81;20988;-86
2021/08/23 08:47:16;;;;;;;21.30;18.67;;;;;;;16.23;86.69;100575.85;1752484;81;21006;-87
2021/08/23 08:49:43;;;;;;;19.80;17.77;;;;;;;16.19;86.69;100576.77;1752926;81;21090;-87
2021/08/23 08:52:09;;;;;;;19.95;17.98;;;;;;;16.17;86.71;100574.81;1753228;81;21019;-88
2021/08/23 08:54:35;;;;;;;21.50;19.30;;;;;;;16.14;86.70;100577.91;1752995;81;21082;-88
2021/08/23 08:57:03;;;;;;;19.23;17.32;;;;;;;16.13;86.73;100573.55;1752832;81;21559;-89
2021/08/23 08:59:30;;;;;;;21.33;19.23;;;;;;;16.11;86.73;100581.01;1752833;81;20998;-90
2021/08/23 09:01:57;;;;;;;20.90;18.92;;;;;;;16.06;86.75;100591.53;1754030;81;21007;-90
2021/08/23 09:04:32;;;;;;;21.10;19.00;;;;;;;16.02;86.75;100589.43;1755792;81;21023;-90
2021/08/23 09:06:58;;;;;;;21.15;19.15;;;;;;;15.98;86.78;100587.14;1755921;81;21149;-90
2021/08/23 09:09:25;;;;;;;21.30;19.20;;;;;;;15.86;86.89;100586.08;1755952;81;21503;-88
2021/08/23 09:11:58;;;;;;;22.40;20.27;;;;;;;15.93;86.83;100597.70;1756142;81;21058;-88
2021/08/23 09:14:24;;;;;;;23.80;21.60;;;;;;;15.94;86.86;100594.46;1755940;81;20990;-88
2021/08/23 09:16:51;;;;;;;22.27;19.87;;;;;;;15.93;86.86;100600.38;1756029;81;21010;-86
2021/08/23 09:19:26;;;;;;;22.32;19.60;;;;;;;15.94;86.64;100603.88;1756138;81;21152;-86
2021/08/23 09:22:10;;;;;;;21.50;19.37;;;;;;;15.93;86.87;100604.93;1755752;81;20999;-85
2021/08/23 09:24:39;;;;;;;19.62;17.67;;;;;;;15.91;86.88;100604.28;1756060;81;21007;-84
2021/08/23 09:27:11;;;;;;;21.15;18.27;;;;;;;15.82;87.00;100594.73;1748312;80;21003;-83
2021/08/23 09:30:01;;;;;;;18.82;16.90;;;;;;;15.88;86.91;100604.17;1736265;81;21062;-77
2021/08/23 09:32:47;;;;;;;20.70;18.60;;;;;;;15.88;86.91;100607.38;1750694;81;21460;-76
2021/08/23 09:35:35;;;;;;;18.00;16.10;;;;;;;15.84;86.76;100604.25;1752301;81;20979;-76
2021/08/23 09:38:01;;;;;;;14.80;13.28;;;;;;;15.84;86.76;100604.25;1731654;81;21057;-75
2021/08/23 09:40:33;;;;;;;12.70;11.40;;;;;;;15.77;86.97;100616.83;1751644;80;21016;-75
2021/08/23 09:43:16;;;;;;;11.78;10.65;;;;;;;15.72;86.99;100615.27;1742009;81;21055;-75
2021/08/23 09:45:47;;;;;;;11.80;10.65;;;;;;;15.67;86.98;100616.87;1751254;80;21605;-74
2021/08/23 09:48:12;;;;;;;13.98;11.97;;;;;;;15.64;87.03;100618.61;1752496;81;21015;-75
2021/08/23 09:50:47;;;;;;;11.93;10.72;;;;;;;15.59;87.02;100615.67;1744009;81;21026;-75
2021/08/23 09:53:15;;;;;;;10.43;9.43;;;;;;;15.56;87.03;100622.80;1748229;81;21094;-76
2021/08/23 09:55:43;;;;;;;8.33;7.53;;;;;;;15.54;87.06;100627.55;1746919;81;21088;-77
2021/08/23 09:58:10;;;;;;;6.67;5.85;;;;;;;15.49;87.09;100627.62;1745993;80;21076;-75
2021/08/23 10:00:39;;;;;;;7.20;6.50;;;;;;;15.36;87.10;100618.09;1743912;81;21519;-75
2021/08/23 10:03:14;;;;;;;7.12;5.65;;;;;;;15.36;87.11;100638.25;1740135;81;21086;-76
2021/08/23 10:05:43;;;;;;;5.35;4.85;;;;;;;15.29;87.19;100626.61;1739153;81;21011;-76
2021/08/23 10:08:14;;;;;;;5.47;4.60;;;;;;;15.10;87.16;100612.50;1740803;81;21523;-76
2021/08/23 10:10:40;;;;;;;6.47;4.65;;;;;;;15.08;87.35;100646.80;1747219;81;21779;-76
2021/08/23 10:13:06;;;;;;;5.47;4.55;;;;;;;15.08;87.35;100646.80;1741170;81;20990;-75
2021/08/23 10:15:32;;;;;;;5.40;4.90;;;;;;;15.04;87.22;100640.64;1750269;81;20979;-76
2021/08/23 10:18:01;;;;;;;5.30;4.90;;;;;;;15.00;87.21;100647.75;1749408;81;20917;-75
2021/08/23 10:20:27;;;;;;;5.53;5.03;;;;;;;14.98;87.23;100657.03;1741279;81;21066;-75
2021/08/23 10:22:53;;;;;;;6.97;5.20;;;;;;;14.93;87.24;100652.23;1769373;80;21145;-76
2021/08/23 10:25:19;;;;;;;5.37;4.83;;;;;;;14.91;87.25;100649.42;1763667;80;21044;-75
2021/08/23 10:27:45;;;;;;;4.45;3.85;;;;;;;14.87;87.23;100651.66;1676361;82;21013;-75
2021/08/23 10:30:23;;;;;;;4.35;3.95;;;;;;;14.85;87.25;100659.56;1752027;81;21516;-77
2021/08/23 10:32:49;;;;;;;4.47;3.80;;;;;;;14.82;87.27;100657.27;1751764;81;21614;-76
2021/08/23 10:35:18;;;;;;;5.00;4.50;;;;;;;14.78;87.26;100658.66;1753689;80;21791;-77
2021/08/23 10:37:44;;;;;;;5.85;4.15;;;;;;;14.73;87.27;100661.11;1753507;81;21003;-74
2021/08/23 10:40:12;;;;;;;4.50;4.10;;;;;;;14.68;87.25;100665.70;1741506;81;20999;-75
2021/08/23 10:42:40;;;;;;;4.95;4.40;;;;;;;14.65;87.30;100661.22;1694759;83;21397;-75
2021/08/23 10:45:12;;;;;;;5.00;4.30;;;;;;;14.65;87.30;100666.59;1722095;83;21579;-75
2021/08/23 10:47:38;;;;;;;5.45;4.83;;;;;;;14.63;87.32;100664.11;1737541;81;21132;-75
2021/08/23 10:50:07;;;;;;;5.15;4.75;;;;;;;14.62;87.33;100660.26;1755341;81;21050;-75
2021/08/23 10:52:36;;;;;;;5.22;4.72;;;;;;;14.61;87.35;100663.95;1750799;81;21018;-76
2021/08/23 10:55:07;;;;;;;9.20;5.40;;;;;;;14.61;87.39;100659.92;1751319;81;21098;-76
2021/08/23 10:57:33;;;;;;;6.42;5.83;;;;;;;14.61;87.38;100662.61;1748000;82;21089;-76
2021/08/23 11:00:15;;;;;;;6.80;5.97;;;;;;;14.61;87.40;100659.92;1744599;81;21765;-76
2021/08/23 11:02:40;;;;;;;7.45;6.78;;;;;;;14.62;87.39;100657.57;1707047;83;21561;-76
2021/08/23 11:05:14;;;;;;;7.42;6.72;;;;;;;14.62;87.40;100665.12;1772697;80;21546;-76
2021/08/23 11:07:47;;;;;;;7.60;6.90;;;;;;;14.65;87.41;100667.92;1763470;80;21054;-75
2021/08/23 11:10:18;;;;;;;8.90;8.00;;;;;;;14.66;87.40;100665.57;1776895;80;21719;-76
2021/08/23 11:12:54;;;;;;;8.48;7.60;;;;;;;14.68;87.42;100666.20;1779619;80;21046;-75